createdAt,value
2023-06-22T00:00:04.978Z,42.08
2023-06-22T00:01:05.095Z,42.02
2023-06-22T00:02:05.065Z,42.00
2023-06-22T00:03:05.181Z,42.02
2023-06-22T00:04:05.183Z,42.00
2023-06-22T00:05:05.212Z,42.00
2023-06-22T00:06:05.248Z,41.99
2023-06-22T00:07:05.294Z,42.00
2023-06-22T00:08:05.413Z,41.98
2023-06-22T00:09:05.375Z,41.98
2023-06-22T00:10:05.455Z,42.01
2023-06-22T00:11:05.484Z,41.97
2023-06-22T00:12:05.539Z,41.97
2023-06-22T00:13:05.577Z,41.99
2023-06-22T00:14:05.624Z,41.95
2023-06-22T00:15:05.634Z,41.97
2023-06-22T00:16:05.675Z,41.97
2023-06-22T00:17:05.785Z,41.96
2023-06-22T00:18:05.914Z,41.92
2023-06-22T00:19:05.850Z,41.95
2023-06-22T00:20:05.854Z,41.94
2023-06-22T00:21:05.912Z,41.95
2023-06-22T00:22:06.010Z,41.97
2023-06-22T00:23:06.030Z,41.95
2023-06-22T00:24:06.061Z,41.91
2023-06-22T00:25:06.091Z,41.91
2023-06-22T00:26:06.143Z,41.88
2023-06-22T00:27:06.220Z,41.91
2023-06-22T00:28:06.253Z,41.89
2023-06-22T00:29:06.282Z,41.88
2023-06-22T00:30:06.300Z,41.87
2023-06-22T00:31:06.399Z,41.89
2023-06-22T00:32:06.403Z,41.88
2023-06-22T00:33:06.533Z,41.85
2023-06-22T00:34:06.504Z,41.84
2023-06-22T00:35:06.536Z,41.84
2023-06-22T00:36:06.580Z,41.85
2023-06-22T00:37:06.635Z,41.86
2023-06-22T00:38:06.656Z,41.84
2023-06-22T00:39:06.696Z,41.86
2023-06-22T00:40:06.747Z,41.83
2023-06-22T00:41:06.864Z,41.87
2023-06-22T00:42:06.858Z,41.84
2023-06-22T00:43:06.943Z,41.81
2023-06-22T00:44:06.975Z,41.83
2023-06-22T00:45:06.985Z,41.82
2023-06-22T00:46:07.066Z,41.83
2023-06-22T00:47:07.067Z,41.82
2023-06-22T00:48:07.198Z,41.83
2023-06-22T00:49:07.213Z,41.81
2023-06-22T00:50:07.231Z,41.82
2023-06-22T00:51:07.298Z,41.78
2023-06-22T00:52:07.333Z,41.78
2023-06-22T00:53:07.374Z,41.79
2023-06-22T00:54:07.436Z,41.78
2023-06-22T00:55:07.472Z,41.80
2023-06-22T00:56:07.537Z,41.78
2023-06-22T00:57:07.551Z,41.79
2023-06-22T00:58:07.589Z,41.82
2023-06-22T00:59:07.699Z,41.79
2023-06-22T01:00:07.714Z,41.76
2023-06-22T01:01:07.799Z,41.74
2023-06-22T01:02:07.803Z,41.75
2023-06-22T01:03:07.868Z,41.80
2023-06-22T01:04:08.057Z,41.71
2023-06-22T01:05:07.939Z,41.74
2023-06-22T01:06:07.980Z,41.75
2023-06-22T01:07:08.027Z,41.75
2023-06-22T01:08:08.088Z,41.76
2023-06-22T01:09:08.136Z,41.75
2023-06-22T01:10:08.180Z,41.76
2023-06-22T01:11:08.261Z,41.73
2023-06-22T01:12:08.271Z,41.69
2023-06-22T01:13:08.328Z,41.70
2023-06-22T01:14:08.375Z,41.71
2023-06-22T01:15:08.428Z,41.72
2023-06-22T01:16:08.481Z,41.71
2023-06-22T01:17:08.535Z,41.69
2023-06-22T01:18:08.544Z,41.69
2023-06-22T01:19:08.617Z,41.69
2023-06-22T01:20:08.670Z,41.67
2023-06-22T01:21:08.680Z,41.68
2023-06-22T01:22:08.738Z,41.69
2023-06-22T01:23:08.817Z,41.72
2023-06-22T01:24:08.811Z,41.69
2023-06-22T01:25:08.854Z,41.66
2023-06-22T01:26:08.982Z,41.68
2023-06-22T01:27:08.973Z,41.65
2023-06-22T01:28:09.020Z,41.67
2023-06-22T01:29:09.057Z,41.66
2023-06-22T01:30:09.081Z,41.66
2023-06-22T01:31:09.118Z,41.64
2023-06-22T01:32:09.908Z,41.66
2023-06-22T01:33:09.341Z,41.63
2023-06-22T01:34:09.309Z,41.64
2023-06-22T01:35:09.291Z,41.63
2023-06-22T01:36:09.379Z,41.63
2023-06-22T01:37:09.399Z,41.65
2023-06-22T01:38:09.441Z,41.64
2023-06-22T01:39:09.570Z,41.65
2023-06-22T01:40:09.684Z,41.63
2023-06-22T01:41:09.658Z,41.64
2023-06-22T01:42:09.730Z,41.61
2023-06-22T01:43:09.705Z,41.62
2023-06-22T01:44:09.848Z,41.65
2023-06-22T01:45:09.826Z,41.65
2023-06-22T01:46:09.859Z,41.59
2023-06-22T01:47:09.921Z,41.62
2023-06-22T01:48:09.970Z,41.61
2023-06-22T01:49:10.002Z,41.57
2023-06-22T01:50:10.058Z,41.59
2023-06-22T01:51:10.121Z,41.62
2023-06-22T01:52:10.169Z,41.62
2023-06-22T01:53:10.173Z,41.61
2023-06-22T01:54:10.237Z,41.59
2023-06-22T01:55:10.308Z,41.57
2023-06-22T01:56:10.342Z,41.59
2023-06-22T01:57:10.431Z,41.57
2023-06-22T01:58:10.415Z,41.58
2023-06-22T01:59:10.486Z,41.56
2023-06-22T02:00:10.544Z,41.60
2023-06-22T02:01:10.614Z,41.57
2023-06-22T02:02:10.719Z,41.61
2023-06-22T02:03:10.773Z,41.58
2023-06-22T02:04:12.734Z,41.58
2023-06-22T02:05:10.781Z,41.56
2023-06-22T02:06:10.837Z,41.54
2023-06-22T02:07:10.890Z,41.57
2023-06-22T02:08:10.900Z,41.52
2023-06-22T02:09:11.022Z,41.54
2023-06-22T02:10:11.005Z,41.55
2023-06-22T02:11:11.054Z,41.51
2023-06-22T02:12:11.097Z,41.53
2023-06-22T02:13:11.157Z,41.53
2023-06-22T02:14:11.191Z,41.52
2023-06-22T02:15:11.245Z,41.49
2023-06-22T02:16:11.284Z,41.52
2023-06-22T02:17:11.333Z,41.51
2023-06-22T02:18:11.529Z,41.54
2023-06-22T02:19:11.454Z,41.47
2023-06-22T02:20:11.439Z,41.53
2023-06-22T02:21:11.494Z,41.51
2023-06-22T02:22:11.560Z,41.50
2023-06-22T02:23:11.632Z,41.49
2023-06-22T02:24:11.669Z,41.49
2023-06-22T02:25:11.687Z,41.49
2023-06-22T02:26:11.741Z,41.47
2023-06-22T02:27:11.867Z,41.49
2023-06-22T02:28:11.839Z,41.47
2023-06-22T02:29:11.878Z,41.49
2023-06-22T02:30:11.930Z,41.49
2023-06-22T02:31:12.079Z,41.47
2023-06-22T02:32:12.047Z,41.47
2023-06-22T02:33:12.120Z,41.50
2023-06-22T02:34:12.152Z,41.46
2023-06-22T02:35:12.202Z,41.45
2023-06-22T02:36:12.236Z,41.45
2023-06-22T02:37:12.332Z,41.46
2023-06-22T02:38:12.350Z,41.46
2023-06-22T02:39:12.513Z,41.43
2023-06-22T02:40:12.467Z,41.46
2023-06-22T02:41:12.623Z,41.50
2023-06-22T02:42:12.612Z,41.45
2023-06-22T02:43:12.617Z,41.45
2023-06-22T02:44:12.666Z,41.47
2023-06-22T02:45:12.705Z,41.42
2023-06-22T02:46:12.736Z,41.43
2023-06-22T02:47:12.861Z,41.43
2023-06-22T02:48:12.934Z,41.43
2023-06-22T02:49:12.937Z,41.43
2023-06-22T02:50:12.979Z,41.42
2023-06-22T02:51:13.037Z,41.43
2023-06-22T02:52:13.091Z,41.40
2023-06-22T02:53:13.131Z,41.43
2023-06-22T02:54:13.194Z,41.45
2023-06-22T02:55:13.253Z,41.44
2023-06-22T02:56:13.274Z,41.42
2023-06-22T02:57:13.328Z,41.40
2023-06-22T02:58:13.370Z,41.40
2023-06-22T02:59:13.451Z,41.40
2023-06-22T03:00:13.516Z,41.39
2023-06-22T03:01:13.629Z,41.43
2023-06-22T03:02:13.670Z,41.41
2023-06-22T03:03:13.737Z,41.38
2023-06-22T03:04:13.731Z,41.39
2023-06-22T03:05:13.781Z,41.40
2023-06-22T03:06:13.819Z,41.39
2023-06-22T03:07:13.895Z,41.40
2023-06-22T03:08:13.966Z,41.38
2023-06-22T03:09:14.001Z,41.39
2023-06-22T03:10:14.071Z,41.38
2023-06-22T03:11:14.072Z,41.42
2023-06-22T03:12:14.133Z,41.35
2023-06-22T03:13:14.162Z,41.38
2023-06-22T03:14:14.231Z,41.35
2023-06-22T03:15:14.339Z,41.40
2023-06-22T03:16:14.391Z,41.38
2023-06-22T03:17:14.413Z,41.37
2023-06-22T03:18:14.466Z,41.35
2023-06-22T03:19:14.557Z,41.36
2023-06-22T03:20:14.611Z,41.35
2023-06-22T03:21:14.626Z,41.35
2023-06-22T03:22:14.811Z,41.37
2023-06-22T03:23:14.704Z,41.36
2023-06-22T03:24:14.817Z,41.39
2023-06-22T03:25:14.880Z,41.34
2023-06-22T03:26:14.871Z,41.37
2023-06-22T03:27:14.987Z,41.38
2023-06-22T03:28:15.034Z,41.34
2023-06-22T03:29:15.027Z,41.37
2023-06-22T03:30:15.198Z,41.38
2023-06-22T03:31:15.174Z,41.34
2023-06-22T03:32:15.227Z,41.39
2023-06-22T03:33:15.242Z,41.41
2023-06-22T03:34:15.303Z,41.36
2023-06-22T03:35:15.377Z,41.34
2023-06-22T03:36:15.396Z,41.33
2023-06-22T03:37:15.462Z,41.37
2023-06-22T03:38:15.497Z,41.36
2023-06-22T03:39:15.581Z,41.34
2023-06-22T03:40:15.609Z,41.35
2023-06-22T03:41:15.676Z,41.32
2023-06-22T03:42:15.698Z,41.35
2023-06-22T03:43:15.742Z,41.31
2023-06-22T03:44:15.819Z,41.31
2023-06-22T03:45:15.879Z,41.34
2023-06-22T03:46:15.937Z,41.33
2023-06-22T03:47:15.966Z,41.31
2023-06-22T03:48:16.049Z,41.35
2023-06-22T03:49:16.088Z,41.34
2023-06-22T03:50:16.101Z,41.30
2023-06-22T03:51:16.164Z,41.28
2023-06-22T03:52:16.232Z,41.28
2023-06-22T03:53:16.279Z,41.28
2023-06-22T03:54:16.344Z,41.29
2023-06-22T03:55:16.382Z,41.31
2023-06-22T03:56:16.404Z,41.27
2023-06-22T03:57:16.528Z,41.31
2023-06-22T03:58:16.535Z,41.33
2023-06-22T03:59:16.571Z,41.30
2023-06-22T04:00:16.676Z,41.27
2023-06-22T04:01:16.685Z,41.29
2023-06-22T04:02:16.802Z,41.32
2023-06-22T04:03:17.098Z,41.31
2023-06-22T04:04:16.978Z,41.66
2023-06-22T04:05:16.938Z,41.89
2023-06-22T04:06:17.055Z,42.07
2023-06-22T04:07:16.982Z,42.35
2023-06-22T04:08:17.121Z,42.49
2023-06-22T04:09:17.092Z,42.70
2023-06-22T04:10:18.451Z,42.78
2023-06-22T04:11:17.163Z,42.92
2023-06-22T04:12:17.187Z,43.17
2023-06-22T04:13:17.297Z,43.23
2023-06-22T04:14:17.253Z,43.40
2023-06-22T04:15:17.310Z,43.44
2023-06-22T04:16:17.364Z,43.53
2023-06-22T04:17:17.354Z,43.62
2023-06-22T04:18:18.321Z,43.81
2023-06-22T04:19:17.450Z,43.88
2023-06-22T04:20:17.525Z,44.04
2023-06-22T04:21:17.546Z,44.13
2023-06-22T04:22:17.588Z,44.20
2023-06-22T04:23:17.639Z,44.29
2023-06-22T04:24:17.650Z,44.39
2023-06-22T04:25:17.742Z,44.48
2023-06-22T04:26:17.759Z,44.47
2023-06-22T04:27:17.813Z,44.60
2023-06-22T04:28:17.891Z,44.66
2023-06-22T04:29:17.880Z,44.77
2023-06-22T04:30:17.953Z,44.83
2023-06-22T04:31:18.022Z,44.87
2023-06-22T04:32:18.072Z,44.81
2023-06-22T04:33:18.125Z,44.69
2023-06-22T04:34:18.119Z,44.67
2023-06-22T04:35:18.185Z,44.58
2023-06-22T04:36:18.222Z,44.52
2023-06-22T04:37:18.287Z,44.40
2023-06-22T04:38:18.312Z,44.44
2023-06-22T04:39:18.487Z,44.50
2023-06-22T04:40:18.436Z,44.41
2023-06-22T04:41:18.509Z,44.39
2023-06-22T04:42:18.554Z,44.38
2023-06-22T04:43:18.669Z,44.35
2023-06-22T04:44:18.672Z,44.32
2023-06-22T04:45:18.712Z,44.19
2023-06-22T04:46:18.755Z,44.24
2023-06-22T04:47:18.832Z,44.15
2023-06-22T04:48:18.904Z,44.19
2023-06-22T04:49:18.917Z,44.10
2023-06-22T04:50:19.077Z,44.09
2023-06-22T04:51:19.001Z,44.04
2023-06-22T04:52:19.101Z,44.03
2023-06-22T04:53:19.107Z,44.01
2023-06-22T04:54:19.188Z,43.99
2023-06-22T04:55:19.240Z,43.94
2023-06-22T04:56:19.305Z,43.96
2023-06-22T04:57:19.304Z,43.87
2023-06-22T04:58:19.418Z,43.88
2023-06-22T04:59:19.420Z,43.83
2023-06-22T05:00:19.465Z,43.77
2023-06-22T05:01:19.539Z,43.78
2023-06-22T05:02:19.604Z,43.77
2023-06-22T05:03:20.645Z,43.70
2023-06-22T05:04:19.811Z,43.73
2023-06-22T05:05:19.775Z,43.70
2023-06-22T05:06:19.788Z,43.66
2023-06-22T05:07:19.827Z,43.66
2023-06-22T05:08:19.909Z,43.74
2023-06-22T05:09:19.946Z,43.66
2023-06-22T05:10:20.023Z,43.69
2023-06-22T05:11:20.055Z,43.65
2023-06-22T05:12:20.068Z,43.64
2023-06-22T05:13:20.141Z,43.61
2023-06-22T05:14:20.248Z,43.63
2023-06-22T05:15:20.260Z,43.59
2023-06-22T05:16:20.321Z,43.57
2023-06-22T05:17:20.403Z,43.52
2023-06-22T05:18:20.540Z,43.58
2023-06-22T05:19:20.442Z,43.54
2023-06-22T05:20:20.539Z,43.59
2023-06-22T05:21:20.581Z,43.60
2023-06-22T05:22:20.619Z,43.56
2023-06-22T05:23:20.662Z,43.62
2023-06-22T05:24:20.727Z,43.51
2023-06-22T05:25:20.795Z,43.54
2023-06-22T05:26:20.819Z,43.56
2023-06-22T05:27:20.866Z,43.56
2023-06-22T05:28:20.922Z,43.55
2023-06-22T05:29:20.957Z,43.59
2023-06-22T05:30:22.411Z,43.52
2023-06-22T05:31:21.128Z,43.52
2023-06-22T05:32:21.198Z,43.52
2023-06-22T05:33:21.214Z,43.53
2023-06-22T05:34:21.198Z,43.58
2023-06-22T05:35:21.263Z,43.53
2023-06-22T05:36:21.326Z,43.51
2023-06-22T05:37:21.374Z,43.55
2023-06-22T05:38:21.441Z,43.61
2023-06-22T05:39:21.511Z,43.52
2023-06-22T05:40:21.521Z,43.55
2023-06-22T05:41:21.571Z,43.56
2023-06-22T05:42:21.634Z,43.57
2023-06-22T05:43:21.671Z,43.55
2023-06-22T05:44:21.721Z,43.57
2023-06-22T05:45:21.807Z,43.60
2023-06-22T05:46:21.799Z,43.59
2023-06-22T05:47:21.930Z,43.57
2023-06-22T05:48:21.940Z,43.61
2023-06-22T05:49:21.944Z,43.57
2023-06-22T05:50:21.994Z,43.51
2023-06-22T05:51:22.048Z,43.55
2023-06-22T05:52:22.161Z,43.54
2023-06-22T05:53:22.157Z,43.53
2023-06-22T05:54:22.203Z,43.61
2023-06-22T05:55:22.279Z,43.60
2023-06-22T05:56:22.324Z,43.57
2023-06-22T05:57:22.387Z,43.61
2023-06-22T05:58:22.387Z,43.55
2023-06-22T05:59:22.438Z,43.52
2023-06-22T06:00:22.479Z,43.61
2023-06-22T06:01:22.564Z,43.57
2023-06-22T06:02:22.599Z,43.57
2023-06-22T06:03:22.671Z,43.56
2023-06-22T06:04:23.518Z,43.50
2023-06-22T06:05:22.702Z,43.51
2023-06-22T06:06:22.761Z,43.54
2023-06-22T06:07:22.845Z,43.52
2023-06-22T06:08:22.834Z,43.53
2023-06-22T06:09:22.893Z,43.55
2023-06-22T06:10:22.923Z,43.60
2023-06-22T06:11:22.962Z,43.57
2023-06-22T06:12:23.001Z,43.67
2023-06-22T06:13:23.073Z,43.65
2023-06-22T06:14:23.069Z,43.77
2023-06-22T06:15:23.225Z,43.78
2023-06-22T06:16:23.149Z,43.84
2023-06-22T06:17:23.405Z,44.22
2023-06-22T06:18:23.245Z,45.24
2023-06-22T06:19:23.278Z,44.89
2023-06-22T06:20:23.373Z,44.52
2023-06-22T06:21:23.436Z,44.36
2023-06-22T06:22:23.519Z,44.10
2023-06-22T06:23:23.469Z,44.16
2023-06-22T06:24:23.552Z,44.27
2023-06-22T06:25:23.568Z,44.13
2023-06-22T06:26:24.362Z,44.21
2023-06-22T06:27:23.657Z,44.44
2023-06-22T06:28:23.721Z,44.32
2023-06-22T06:29:23.729Z,44.56
2023-06-22T06:30:23.862Z,45.05
2023-06-22T06:31:23.840Z,45.54
2023-06-22T06:32:23.886Z,45.83
2023-06-22T06:33:25.978Z,46.02
2023-06-22T06:34:23.940Z,46.42
2023-06-22T06:35:23.993Z,45.76
2023-06-22T06:36:24.056Z,45.64
2023-06-22T06:37:24.021Z,45.61
2023-06-22T06:38:24.095Z,45.86
2023-06-22T06:39:24.157Z,45.79
2023-06-22T06:40:24.172Z,45.70
2023-06-22T06:41:24.277Z,45.53
2023-06-22T06:42:24.267Z,45.46
2023-06-22T06:43:24.305Z,45.38
2023-06-22T06:44:24.351Z,45.65
2023-06-22T06:45:24.405Z,45.74
2023-06-22T06:46:24.555Z,45.61
2023-06-22T06:47:24.480Z,45.75
2023-06-22T06:48:24.530Z,45.70
2023-06-22T06:49:24.559Z,45.66
2023-06-22T06:50:24.609Z,45.53
2023-06-22T06:51:24.631Z,45.40
2023-06-22T06:52:24.726Z,45.42
2023-06-22T06:53:24.715Z,45.49
2023-06-22T06:54:24.853Z,45.75
2023-06-22T06:55:24.829Z,45.88
2023-06-22T06:56:24.931Z,46.03
2023-06-22T06:57:24.839Z,46.24
2023-06-22T06:58:24.912Z,46.33
2023-06-22T06:59:24.906Z,46.46
2023-06-22T07:00:25.001Z,46.64
2023-06-22T07:01:25.090Z,46.82
2023-06-22T07:02:25.037Z,47.03
2023-06-22T07:03:25.097Z,47.25
2023-06-22T07:04:25.157Z,47.34
2023-06-22T07:05:25.152Z,47.32
2023-06-22T07:06:25.159Z,47.47
2023-06-22T07:07:25.189Z,47.62
2023-06-22T07:08:25.267Z,47.66
2023-06-22T07:09:25.232Z,47.83
2023-06-22T07:10:25.404Z,47.94
2023-06-22T07:11:25.312Z,47.99
2023-06-22T07:12:25.357Z,47.86
2023-06-22T07:13:25.422Z,48.19
2023-06-22T07:14:25.497Z,48.21
2023-06-22T07:15:25.503Z,48.23
2023-06-22T07:16:25.492Z,48.34
2023-06-22T07:17:25.560Z,48.46
2023-06-22T07:18:25.536Z,48.47
2023-06-22T07:19:25.554Z,48.44
2023-06-22T07:20:25.678Z,48.53
2023-06-22T07:21:25.637Z,48.56
2023-06-22T07:22:25.681Z,48.68
2023-06-22T07:23:25.689Z,48.86
2023-06-22T07:24:25.704Z,48.78
2023-06-22T07:25:25.757Z,48.91
2023-06-22T07:26:25.803Z,48.91
2023-06-22T07:27:25.830Z,49.12
2023-06-22T07:28:25.946Z,49.12
2023-06-22T07:29:26.433Z,49.29
2023-06-22T07:30:25.986Z,49.35
2023-06-22T07:31:25.946Z,49.36
2023-06-22T07:32:25.965Z,49.48
2023-06-22T07:33:25.957Z,49.46
2023-06-22T07:34:26.007Z,49.36
2023-06-22T07:35:26.066Z,49.52
2023-06-22T07:36:26.043Z,49.50
2023-06-22T07:37:26.085Z,49.56
2023-06-22T07:38:26.080Z,49.60
2023-06-22T07:39:26.103Z,49.72
2023-06-22T07:40:26.126Z,49.78
2023-06-22T07:41:26.138Z,49.84
2023-06-22T07:42:26.189Z,49.83
2023-06-22T07:43:27.394Z,49.89
2023-06-22T07:44:26.206Z,49.91
2023-06-22T07:45:26.217Z,49.93
2023-06-22T07:46:26.246Z,49.92
2023-06-22T07:47:26.453Z,49.85
2023-06-22T07:48:26.241Z,49.96
2023-06-22T07:49:26.285Z,50.00
2023-06-22T07:50:26.295Z,50.06
2023-06-22T07:51:26.301Z,50.12
2023-06-22T07:52:26.306Z,50.15
2023-06-22T07:53:26.372Z,50.21
2023-06-22T07:54:26.415Z,50.25
2023-06-22T07:55:26.566Z,50.22
2023-06-22T07:56:26.374Z,50.32
2023-06-22T07:57:26.345Z,50.28
2023-06-22T07:58:26.355Z,50.49
2023-06-22T07:59:26.390Z,50.47
2023-06-22T08:00:26.425Z,50.42
2023-06-22T08:01:26.408Z,50.45
2023-06-22T08:02:26.464Z,50.48
2023-06-22T08:03:26.470Z,50.50
2023-06-22T08:04:26.421Z,50.54
2023-06-22T08:05:26.461Z,50.42
2023-06-22T08:06:26.442Z,50.52
2023-06-22T08:07:26.443Z,50.52
2023-06-22T08:08:26.451Z,50.45
2023-06-22T08:09:26.453Z,50.47
2023-06-22T08:10:26.462Z,50.42
2023-06-22T08:11:26.478Z,50.37
2023-06-22T08:12:26.476Z,50.39
2023-06-22T08:13:26.570Z,50.40
2023-06-22T08:14:26.676Z,50.37
2023-06-22T08:15:26.971Z,50.25
2023-06-22T08:16:26.526Z,50.20
2023-06-22T08:17:26.559Z,50.17
2023-06-22T08:18:26.593Z,50.10
2023-06-22T08:19:26.569Z,50.15
2023-06-22T08:20:26.564Z,50.11
2023-06-22T08:21:26.575Z,50.07
2023-06-22T08:22:26.568Z,50.02
2023-06-22T08:23:26.614Z,49.99
2023-06-22T08:24:26.603Z,49.95
2023-06-22T08:25:26.744Z,49.92
2023-06-22T08:26:26.626Z,49.88
2023-06-22T08:27:26.615Z,49.86
2023-06-22T08:28:26.596Z,49.82
2023-06-22T08:29:26.586Z,49.80
2023-06-22T08:30:27.096Z,49.78
2023-06-22T08:31:26.692Z,49.67
2023-06-22T08:32:26.761Z,49.71
2023-06-22T08:33:28.461Z,49.69
2023-06-22T08:34:26.698Z,49.61
2023-06-22T08:35:26.876Z,49.61
2023-06-22T08:36:26.693Z,49.55
2023-06-22T08:37:26.679Z,49.53
2023-06-22T08:38:26.758Z,49.49
2023-06-22T08:39:26.770Z,49.48
2023-06-22T08:40:26.772Z,49.41
2023-06-22T08:41:26.744Z,49.41
2023-06-22T08:42:26.754Z,49.38
2023-06-22T08:43:26.803Z,49.34
2023-06-22T08:44:26.776Z,49.31
2023-06-22T08:45:28.088Z,49.31
2023-06-22T08:46:26.842Z,49.28
2023-06-22T08:47:26.821Z,49.28
2023-06-22T08:48:26.782Z,49.27
2023-06-22T08:49:26.759Z,49.21
2023-06-22T08:50:26.921Z,49.22
2023-06-22T08:51:26.748Z,49.25
2023-06-22T08:52:26.950Z,49.24
2023-06-22T08:53:26.757Z,49.26
2023-06-22T08:54:26.735Z,49.16
2023-06-22T08:55:26.897Z,49.20
2023-06-22T08:56:26.716Z,49.22
2023-06-22T08:57:26.682Z,49.18
2023-06-22T08:58:26.790Z,49.17
2023-06-22T08:59:26.703Z,49.19
2023-06-22T09:00:26.681Z,49.18
2023-06-22T09:01:26.710Z,49.17
2023-06-22T09:02:26.812Z,49.11
2023-06-22T09:03:26.763Z,49.12
2023-06-22T09:04:27.032Z,49.11
2023-06-22T09:05:26.844Z,49.09
2023-06-22T09:06:26.715Z,49.04
2023-06-22T09:07:26.649Z,48.99
2023-06-22T09:08:26.651Z,48.95
2023-06-22T09:09:26.609Z,48.96
2023-06-22T09:10:26.694Z,48.90
2023-06-22T09:11:26.612Z,48.91
2023-06-22T09:12:26.638Z,48.89
2023-06-22T09:13:26.637Z,48.85
2023-06-22T09:14:26.605Z,48.85
2023-06-22T09:15:26.562Z,48.84
2023-06-22T09:16:26.573Z,48.82
2023-06-22T09:17:26.583Z,48.77
2023-06-22T09:18:26.599Z,48.79
2023-06-22T09:19:26.664Z,48.78
2023-06-22T09:20:26.626Z,48.81
2023-06-22T09:21:26.573Z,48.76
2023-06-22T09:22:26.562Z,48.76
2023-06-22T09:23:26.550Z,48.75
2023-06-22T09:24:26.532Z,48.73
2023-06-22T09:25:26.716Z,48.72
2023-06-22T09:26:26.523Z,48.73
2023-06-22T09:27:26.532Z,48.72
2023-06-22T09:28:26.494Z,48.70
2023-06-22T09:29:26.489Z,48.68
2023-06-22T09:30:26.680Z,48.70
2023-06-22T09:31:26.695Z,48.70
2023-06-22T09:32:26.492Z,48.65
2023-06-22T09:33:26.510Z,48.71
2023-06-22T09:34:26.502Z,48.69
2023-06-22T09:35:26.475Z,48.70
2023-06-22T09:36:26.429Z,48.70
2023-06-22T09:37:26.493Z,48.67
2023-06-22T09:38:26.445Z,48.67
2023-06-22T09:39:26.459Z,48.64
2023-06-22T09:40:26.509Z,48.59
2023-06-22T09:41:26.501Z,48.56
2023-06-22T09:42:26.512Z,48.60
2023-06-22T09:43:26.429Z,48.61
2023-06-22T09:44:26.382Z,48.61
2023-06-22T09:45:26.425Z,48.60
2023-06-22T09:46:26.633Z,48.63
2023-06-22T09:47:26.428Z,48.60
2023-06-22T09:48:26.416Z,48.56
2023-06-22T09:49:45.817Z,48.61
2023-06-22T09:50:27.637Z,48.66
2023-06-22T09:51:26.349Z,48.46
2023-06-22T09:52:34.190Z,48.36
2023-06-22T09:53:27.336Z,48.49
2023-06-22T09:54:26.406Z,48.46
2023-06-22T09:55:26.350Z,48.58
2023-06-22T09:56:28.795Z,48.51
2023-06-22T09:57:26.349Z,48.55
2023-06-22T09:58:26.324Z,48.56
2023-06-22T09:59:26.286Z,48.46
2023-06-22T10:00:26.358Z,48.47
2023-06-22T10:01:26.299Z,48.43
2023-06-22T10:02:26.461Z,48.42
2023-06-22T10:03:26.356Z,48.43
2023-06-22T10:04:26.434Z,48.30
2023-06-22T10:05:26.330Z,48.31
2023-06-22T10:06:26.326Z,48.14
2023-06-22T10:07:26.247Z,48.25
2023-06-22T10:08:26.224Z,48.16
2023-06-22T10:09:26.234Z,48.28
2023-06-22T10:10:26.226Z,48.20
2023-06-22T10:11:26.213Z,48.24
2023-06-22T10:12:26.214Z,48.27
2023-06-22T10:13:26.232Z,48.22
2023-06-22T10:14:26.231Z,48.21
2023-06-22T10:15:26.379Z,48.27
2023-06-22T10:16:26.174Z,48.19
2023-06-22T10:17:26.217Z,48.19
2023-06-22T10:18:26.170Z,48.26
2023-06-22T10:19:26.164Z,48.31
2023-06-22T10:20:26.163Z,48.38
2023-06-22T10:21:26.168Z,48.31
2023-06-22T10:22:26.356Z,48.37
2023-06-22T10:23:26.201Z,48.34
2023-06-22T10:24:26.149Z,48.20
2023-06-22T10:25:26.126Z,48.27
2023-06-22T10:26:26.092Z,48.26
2023-06-22T10:27:26.118Z,48.33
2023-06-22T10:28:26.120Z,48.08
2023-06-22T10:29:26.077Z,48.25
2023-06-22T10:30:26.112Z,48.21
2023-06-22T10:31:26.235Z,48.16
2023-06-22T10:32:26.198Z,48.13
2023-06-22T10:33:26.106Z,48.19
2023-06-22T10:34:26.076Z,48.17
2023-06-22T10:35:26.097Z,48.14
2023-06-22T10:36:26.081Z,48.19
2023-06-22T10:37:26.046Z,48.10
2023-06-22T10:38:26.029Z,48.15
2023-06-22T10:39:26.017Z,48.16
2023-06-22T10:40:26.065Z,48.14
2023-06-22T10:41:26.001Z,48.13
2023-06-22T10:42:26.024Z,48.10
2023-06-22T10:43:26.009Z,48.07
2023-06-22T10:44:26.059Z,48.09
2023-06-22T10:45:26.037Z,48.08
2023-06-22T10:46:26.001Z,47.93
2023-06-22T10:47:26.047Z,47.98
2023-06-22T10:48:25.945Z,47.95
2023-06-22T10:50:27.597Z,48.04
2023-06-22T10:51:27.556Z,47.94
2023-06-22T10:52:27.539Z,47.91
2023-06-22T10:53:27.593Z,47.82
2023-06-22T10:54:27.575Z,47.89
2023-06-22T10:55:27.957Z,47.87
2023-06-22T10:56:27.524Z,47.90
2023-06-22T10:57:27.510Z,47.92
2023-06-22T10:58:27.614Z,47.80
2023-06-22T10:59:27.574Z,47.97
2023-06-22T11:00:27.497Z,47.98
2023-06-22T11:01:38.344Z,47.97
2023-06-22T11:02:28.606Z,48.08
2023-06-22T11:03:28.434Z,48.07
2023-06-22T11:04:27.575Z,48.21
2023-06-22T11:05:27.646Z,48.29
2023-06-22T11:06:27.497Z,48.34
2023-06-22T11:07:27.456Z,48.46
2023-06-22T11:08:27.437Z,48.53
2023-06-22T11:09:29.599Z,48.54
2023-06-22T11:10:27.559Z,48.59
2023-06-22T11:11:27.622Z,48.64
2023-06-22T11:12:27.634Z,48.72
2023-06-22T11:13:27.709Z,48.86
2023-06-22T11:14:27.747Z,48.99
2023-06-22T11:15:27.876Z,49.16
2023-06-22T11:16:27.903Z,49.29
2023-06-22T11:17:27.980Z,49.25
2023-06-22T11:18:27.969Z,49.33
2023-06-22T11:19:28.054Z,49.30
2023-06-22T11:20:28.464Z,49.35
2023-06-22T11:21:28.170Z,49.44
2023-06-22T11:22:28.238Z,49.56
2023-06-22T11:23:28.287Z,49.74
2023-06-22T11:24:28.360Z,49.77
2023-06-22T11:25:28.527Z,49.80
2023-06-22T11:26:28.493Z,49.84
2023-06-22T11:27:28.475Z,49.89
2023-06-22T11:28:28.598Z,50.01
2023-06-22T11:29:37.338Z,49.96
2023-06-22T11:30:29.880Z,50.02
2023-06-22T11:31:28.666Z,50.12
2023-06-22T11:32:28.675Z,50.05
2023-06-22T11:33:28.577Z,50.09
2023-06-22T11:34:28.685Z,50.20
2023-06-22T11:35:28.587Z,50.15
2023-06-22T11:36:28.592Z,50.11
2023-06-22T11:37:28.565Z,50.23
2023-06-22T11:38:28.601Z,50.26
2023-06-22T11:39:38.942Z,50.23
2023-06-22T11:40:29.772Z,50.20
2023-06-22T11:41:28.570Z,50.18
2023-06-22T11:42:28.601Z,50.22
2023-06-22T11:43:28.597Z,50.25
2023-06-22T11:44:28.575Z,50.26
2023-06-22T11:45:28.574Z,50.28
2023-06-22T11:46:28.548Z,50.31
2023-06-22T11:47:28.571Z,50.27
2023-06-22T11:48:28.524Z,50.25
2023-06-22T11:49:29.199Z,50.17
2023-06-22T11:50:28.867Z,50.23
2023-06-22T11:51:28.687Z,50.17
2023-06-22T11:52:28.758Z,50.17
2023-06-22T11:53:28.821Z,50.19
2023-06-22T11:54:28.872Z,50.20
2023-06-22T11:55:29.705Z,50.19
2023-06-22T11:56:28.992Z,50.14
2023-06-22T11:57:28.999Z,50.11
2023-06-22T11:58:29.047Z,50.09
2023-06-22T11:59:29.119Z,50.07
2023-06-22T12:00:30.640Z,50.00
2023-06-22T12:01:29.219Z,50.03
2023-06-22T12:02:29.330Z,50.00
2023-06-22T12:03:29.387Z,49.97
2023-06-22T12:04:29.381Z,49.94
2023-06-22T12:05:29.446Z,49.91
2023-06-22T12:06:29.536Z,49.91
2023-06-22T12:07:29.580Z,49.85
2023-06-22T12:08:29.691Z,49.86
2023-06-22T12:09:29.657Z,49.85
2023-06-22T12:10:30.154Z,49.80
2023-06-22T12:11:29.781Z,49.80
2023-06-22T12:12:29.898Z,49.78
2023-06-22T12:13:29.942Z,49.79
2023-06-22T12:14:30.644Z,49.75
2023-06-22T12:15:30.091Z,49.79
2023-06-22T12:16:30.150Z,49.75
2023-06-22T12:17:30.254Z,49.79
2023-06-22T12:18:30.255Z,49.78
2023-06-22T12:19:30.314Z,49.74
2023-06-22T12:20:30.610Z,49.70
2023-06-22T12:21:30.478Z,49.65
2023-06-22T12:22:30.533Z,49.60
2023-06-22T12:23:30.618Z,49.53
2023-06-22T12:24:30.634Z,49.52
2023-06-22T12:25:30.694Z,49.50
2023-06-22T12:26:30.772Z,49.49
2023-06-22T12:27:30.797Z,49.47
2023-06-22T12:28:30.902Z,49.47
2023-06-22T12:29:31.034Z,49.46
2023-06-22T12:30:31.280Z,49.41
2023-06-22T12:31:31.129Z,49.42
2023-06-22T12:32:31.159Z,49.42
2023-06-22T12:33:31.200Z,49.37
2023-06-22T12:34:31.296Z,49.38
2023-06-22T12:35:31.375Z,49.36
2023-06-22T12:36:31.405Z,49.32
2023-06-22T12:37:31.461Z,49.30
2023-06-22T12:38:31.529Z,49.28
2023-06-22T12:39:31.595Z,49.27
2023-06-22T12:40:31.915Z,49.26
2023-06-22T12:41:31.770Z,49.25
2023-06-22T12:42:31.772Z,49.23
2023-06-22T12:43:31.861Z,49.22
2023-06-22T12:44:31.925Z,49.17
2023-06-22T12:45:31.996Z,49.20
2023-06-22T12:46:32.083Z,49.14
2023-06-22T12:47:32.112Z,49.14
2023-06-22T12:48:32.122Z,49.14
2023-06-22T12:49:32.238Z,49.13
2023-06-22T12:50:32.674Z,49.12
2023-06-22T12:51:32.376Z,49.08
2023-06-22T12:52:32.428Z,49.05
2023-06-22T12:53:32.496Z,49.04